createdAt,value
2017-11-05T00:00:31.837Z,6.34
2017-11-05T00:02:59.301Z,6.31
2017-11-05T00:05:26.781Z,6.61
2017-11-05T00:07:54.246Z,6.57
2017-11-05T00:10:21.737Z,6.57
2017-11-05T00:12:49.197Z,6.65
2017-11-05T00:15:17.134Z,6.65
2017-11-05T00:17:44.601Z,6.63
2017-11-05T00:20:12.061Z,6.73
2017-11-05T00:22:39.549Z,6.84
2017-11-05T00:25:07.033Z,6.92
2017-11-05T00:27:34.514Z,6.93
2017-11-05T00:30:01.976Z,6.96
2017-11-05T00:32:29.490Z,6.88
2017-11-05T00:34:56.961Z,6.81
2017-11-05T00:37:24.447Z,6.91
2017-11-05T00:39:51.912Z,6.84
2017-11-05T00:42:19.465Z,6.77
2017-11-05T00:44:46.930Z,6.75
2017-11-05T00:47:14.412Z,6.84
2017-11-05T00:49:41.883Z,6.88
2017-11-05T00:52:09.372Z,6.85
2017-11-05T00:54:36.834Z,6.87
2017-11-05T00:57:04.312Z,6.88
2017-11-05T00:59:31.783Z,7.01
2017-11-05T01:01:59.274Z,7.06
2017-11-05T01:04:26.793Z,7.15
2017-11-05T01:06:54.283Z,7.19
2017-11-05T01:09:21.746Z,7.37
2017-11-05T01:11:49.249Z,7.55
2017-11-05T01:14:16.703Z,7.45
2017-11-05T01:16:44.199Z,7.42
2017-11-05T01:19:11.689Z,7.57
2017-11-05T01:21:39.143Z,7.49
2017-11-05T01:24:06.631Z,7.50
2017-11-05T01:26:34.101Z,7.60
2017-11-05T01:29:01.572Z,7.69
2017-11-05T01:31:29.037Z,7.74
2017-11-05T01:33:56.565Z,7.90
2017-11-05T01:36:24.020Z,8.07
2017-11-05T01:38:51.517Z,7.59
2017-11-05T01:41:18.985Z,7.64
2017-11-05T01:43:46.500Z,7.67
2017-11-05T01:46:13.955Z,7.46
2017-11-05T01:48:41.436Z,7.55
2017-11-05T01:51:08.912Z,7.50
2017-11-05T01:53:36.421Z,7.49
2017-11-05T01:56:03.881Z,7.41
2017-11-05T01:58:31.342Z,7.40
2017-11-05T02:00:58.841Z,7.42
2017-11-05T02:03:26.301Z,7.57
2017-11-05T02:05:53.784Z,7.71
2017-11-05T02:08:21.258Z,7.70
2017-11-05T02:10:48.753Z,7.81
2017-11-05T02:13:16.214Z,7.92
2017-11-05T02:15:45.586Z,8.08
2017-11-05T02:18:13.040Z,7.98
2017-11-05T02:20:40.516Z,7.91
2017-11-05T02:23:07.974Z,7.85
2017-11-05T02:25:35.450Z,7.93
2017-11-05T02:28:02.917Z,8.02
2017-11-05T02:30:30.439Z,8.12
2017-11-05T02:32:57.901Z,8.09
2017-11-05T02:35:25.389Z,8.05
2017-11-05T02:37:52.836Z,8.17
2017-11-05T02:40:20.322Z,8.16
2017-11-05T02:42:47.813Z,8.20
2017-11-05T02:45:15.273Z,8.22
2017-11-05T02:47:42.759Z,8.18
2017-11-05T02:50:10.269Z,8.20
2017-11-05T02:52:37.830Z,8.19
2017-11-05T02:55:05.286Z,8.22
2017-11-05T02:57:32.780Z,8.26
2017-11-05T03:00:00.227Z,8.26
2017-11-05T03:02:27.712Z,8.15
2017-11-05T03:04:55.217Z,8.06
2017-11-05T03:07:22.825Z,8.16
2017-11-05T03:09:50.298Z,8.53
2017-11-05T03:12:17.759Z,8.27
2017-11-05T03:14:45.238Z,8.27
2017-11-05T03:17:12.704Z,8.36
2017-11-05T03:19:40.226Z,8.23
2017-11-05T03:22:07.717Z,8.60
2017-11-05T03:24:35.199Z,8.42
2017-11-05T03:27:02.651Z,8.38
2017-11-05T03:29:30.120Z,8.52
2017-11-05T03:31:57.581Z,8.74
2017-11-05T03:34:25.056Z,8.56
2017-11-05T03:36:52.512Z,8.51
2017-11-05T03:39:19.992Z,8.48
2017-11-05T03:41:47.496Z,8.47
2017-11-05T03:44:14.963Z,8.43
2017-11-05T03:46:42.440Z,8.54
2017-11-05T03:49:09.915Z,8.55
2017-11-05T03:51:37.368Z,8.45
2017-11-05T03:54:04.855Z,8.45
2017-11-05T03:56:32.317Z,8.47
2017-11-05T03:58:59.809Z,8.47
2017-11-05T04:01:27.255Z,8.49
2017-11-05T04:03:54.744Z,8.47
2017-11-05T04:06:22.192Z,8.47
2017-11-05T04:08:49.647Z,8.41
2017-11-05T04:11:17.116Z,8.26
2017-11-05T04:13:44.564Z,8.42
2017-11-05T04:16:12.048Z,8.64
2017-11-05T04:18:39.499Z,8.55
2017-11-05T04:21:07.089Z,8.61
2017-11-05T04:23:34.651Z,8.61
2017-11-05T04:26:02.148Z,8.55
2017-11-05T04:28:29.678Z,8.59
2017-11-05T04:30:57.194Z,8.66
2017-11-05T04:33:24.671Z,8.60
2017-11-05T04:35:52.115Z,8.81
2017-11-05T04:38:19.592Z,8.71
2017-11-05T04:40:47.042Z,8.74
2017-11-05T04:43:14.601Z,8.74
2017-11-05T04:45:42.063Z,8.72
2017-11-05T04:48:09.570Z,8.78
2017-11-05T04:50:37.026Z,8.76
2017-11-05T04:53:04.514Z,8.80
2017-11-05T04:55:31.989Z,8.74
2017-11-05T04:57:59.484Z,8.73
2017-11-05T05:00:26.933Z,8.72
2017-11-05T05:02:54.441Z,8.89
2017-11-05T05:05:21.902Z,9.25
2017-11-05T05:07:49.384Z,9.23
2017-11-05T05:10:16.845Z,9.26
2017-11-05T05:12:44.417Z,8.96
2017-11-05T05:15:11.895Z,8.78
2017-11-05T05:17:39.360Z,8.83
2017-11-05T05:20:06.844Z,8.80
2017-11-05T05:22:34.296Z,8.84
2017-11-05T05:25:01.786Z,8.78
2017-11-05T05:27:29.249Z,8.65
2017-11-05T05:29:56.729Z,8.63
2017-11-05T05:32:24.204Z,8.73
2017-11-05T05:34:51.701Z,8.73
2017-11-05T05:37:19.166Z,8.76
2017-11-05T05:39:46.729Z,8.73
2017-11-05T05:42:14.249Z,8.63
2017-11-05T05:44:41.739Z,8.74
2017-11-05T05:47:09.229Z,8.78
2017-11-05T05:49:36.724Z,8.85
2017-11-05T05:52:04.181Z,9.01
2017-11-05T05:54:31.633Z,9.13
2017-11-05T05:56:59.120Z,8.83
2017-11-05T05:59:26.621Z,8.73
2017-11-05T06:01:54.103Z,8.88
2017-11-05T06:04:21.585Z,8.83
2017-11-05T06:06:49.087Z,9.10
2017-11-05T06:09:16.543Z,9.06
2017-11-05T06:11:44.061Z,9.12
2017-11-05T06:14:11.513Z,8.99
2017-11-05T06:16:38.996Z,9.02
2017-11-05T06:19:06.457Z,9.18
2017-11-05T06:21:33.935Z,9.07
2017-11-05T06:24:01.405Z,9.05
2017-11-05T06:26:28.899Z,9.63
2017-11-05T06:28:56.356Z,9.74
2017-11-05T06:31:24.846Z,9.83
2017-11-05T06:33:52.492Z,9.70
2017-11-05T06:36:19.941Z,9.75
2017-11-05T06:38:47.409Z,9.49
2017-11-05T06:41:14.893Z,9.24
2017-11-05T06:43:42.385Z,9.22
2017-11-05T06:46:09.846Z,9.22
2017-11-05T06:48:37.823Z,9.39
2017-11-05T06:51:05.385Z,9.32
2017-11-05T06:53:32.894Z,9.29
2017-11-05T06:56:00.434Z,9.21
2017-11-05T06:58:27.917Z,9.23
2017-11-05T07:00:55.367Z,9.17
2017-11-05T07:03:22.913Z,9.17
2017-11-05T07:05:50.404Z,9.23
2017-11-05T07:08:17.908Z,9.19
2017-11-05T07:10:45.379Z,9.23
2017-11-05T07:13:12.857Z,9.25
2017-11-05T07:15:40.341Z,9.23
2017-11-05T07:18:07.792Z,9.26
2017-11-05T07:20:35.301Z,9.23
2017-11-05T07:23:02.878Z,9.33
2017-11-05T07:25:30.352Z,9.36
2017-11-05T07:27:57.833Z,9.31
2017-11-05T07:30:25.309Z,9.43
2017-11-05T07:32:52.780Z,9.39
2017-11-05T07:35:20.265Z,9.39
2017-11-05T07:37:47.729Z,9.28
2017-11-05T07:40:15.256Z,9.36
2017-11-05T07:42:42.720Z,9.39
2017-11-05T07:45:10.188Z,9.38
2017-11-05T07:47:37.650Z,9.67
2017-11-05T07:50:05.129Z,9.82
2017-11-05T07:52:32.636Z,9.87
2017-11-05T07:55:00.133Z,9.98
2017-11-05T07:57:27.603Z,9.84
2017-11-05T07:59:55.052Z,9.84
2017-11-05T08:02:22.527Z,9.91
2017-11-05T08:04:50.033Z,10.04
2017-11-05T08:07:17.522Z,10.01
2017-11-05T08:09:44.979Z,10.13
2017-11-05T08:12:12.465Z,10.16
2017-11-05T08:14:39.987Z,10.22
2017-11-05T08:17:07.461Z,10.15
2017-11-05T08:19:34.950Z,10.39
2017-11-05T08:22:02.432Z,10.64
2017-11-05T08:24:29.884Z,10.54
2017-11-05T08:26:57.361Z,10.62
2017-11-05T08:29:24.837Z,10.61
2017-11-05T08:31:52.364Z,10.72
2017-11-05T08:34:19.896Z,10.57
2017-11-05T08:36:47.399Z,10.56
2017-11-05T08:39:14.899Z,10.54
2017-11-05T08:41:42.399Z,10.53
2017-11-05T08:44:09.877Z,10.59
2017-11-05T08:46:37.413Z,10.41
2017-11-05T08:49:04.897Z,10.42
2017-11-05T08:51:32.353Z,10.43
2017-11-05T08:53:59.816Z,10.41
2017-11-05T08:56:27.265Z,10.32
2017-11-05T08:58:54.728Z,10.26
2017-11-05T09:01:22.181Z,10.29
2017-11-05T09:03:49.685Z,10.34
2017-11-05T09:06:17.137Z,10.42
2017-11-05T09:08:44.612Z,10.46
2017-11-05T09:11:12.081Z,10.56
2017-11-05T09:13:39.560Z,10.52
2017-11-05T09:16:06.999Z,10.45
2017-11-05T09:18:34.450Z,10.39
2017-11-05T09:21:01.946Z,10.38
2017-11-05T09:23:29.406Z,10.49
2017-11-05T09:25:56.920Z,10.45
2017-11-05T09:28:24.374Z,10.36
2017-11-05T09:30:51.844Z,10.28
2017-11-05T09:33:19.321Z,10.45
2017-11-05T09:35:46.788Z,10.21
2017-11-05T09:38:14.287Z,10.30
2017-11-05T09:40:41.851Z,10.49
2017-11-05T09:43:09.309Z,10.52
2017-11-05T09:45:36.815Z,10.71
2017-11-05T09:48:04.272Z,10.65
2017-11-05T09:50:31.723Z,10.56
2017-11-05T09:52:59.201Z,10.49
2017-11-05T09:55:26.644Z,10.67
2017-11-05T09:57:54.175Z,10.33
2017-11-05T10:00:21.748Z,10.40
2017-11-05T10:02:49.525Z,10.55
2017-11-05T10:05:17.421Z,10.51
2017-11-05T10:07:44.983Z,10.42
2017-11-05T10:10:12.442Z,10.41
2017-11-05T10:12:39.951Z,10.43
2017-11-05T10:15:07.407Z,10.37
2017-11-05T10:17:34.922Z,10.31
2017-11-05T10:20:02.397Z,10.31
2017-11-05T10:22:29.887Z,10.24
2017-11-05T10:24:57.332Z,10.12
2017-11-05T10:27:24.776Z,10.16
2017-11-05T10:29:52.314Z,10.14
2017-11-05T10:32:19.868Z,10.00
2017-11-05T10:34:47.441Z,10.05
2017-11-05T10:37:14.999Z,10.04
2017-11-05T10:39:42.536Z,10.01
2017-11-05T10:42:09.979Z,9.90
2017-11-05T10:44:37.454Z,10.03
2017-11-05T10:47:04.907Z,10.24
2017-11-05T10:49:32.385Z,10.31
2017-11-05T10:51:59.839Z,10.30
2017-11-05T10:54:27.402Z,10.01
2017-11-05T10:56:54.961Z,10.36
2017-11-05T10:59:22.436Z,10.09
2017-11-05T11:01:49.901Z,10.15
2017-11-05T11:04:17.387Z,10.27
2017-11-05T11:06:44.828Z,10.35
2017-11-05T11:09:12.312Z,10.31
2017-11-05T11:11:39.756Z,10.24
2017-11-05T11:14:07.200Z,10.17
2017-11-05T11:16:34.684Z,10.19
2017-11-05T11:19:02.147Z,10.17
2017-11-05T11:21:29.720Z,10.39
2017-11-05T11:23:57.176Z,10.15
2017-11-05T11:26:24.683Z,10.05
2017-11-05T11:28:52.138Z,10.06
2017-11-05T11:31:19.613Z,10.07
2017-11-05T11:33:47.071Z,10.21
2017-11-05T11:36:14.554Z,10.16
2017-11-05T11:38:42.022Z,10.15
2017-11-05T11:41:09.516Z,10.21
2017-11-05T11:43:36.980Z,10.53
2017-11-05T11:46:04.452Z,10.46
2017-11-05T11:48:31.907Z,10.35
2017-11-05T11:50:59.400Z,10.33
2017-11-05T11:53:26.857Z,10.40
2017-11-05T11:55:54.348Z,10.84
2017-11-05T11:58:21.806Z,10.80
2017-11-05T12:00:49.283Z,10.70
2017-11-05T12:03:16.789Z,10.92
2017-11-05T12:05:44.345Z,10.90
2017-11-05T12:08:11.837Z,10.81
2017-11-05T12:10:39.275Z,10.74
2017-11-05T12:13:06.743Z,10.66
2017-11-05T12:15:34.188Z,10.70
2017-11-05T12:18:01.661Z,10.69
2017-11-05T12:20:29.179Z,10.70
2017-11-05T12:22:56.647Z,10.76
2017-11-05T12:25:24.099Z,10.60
2017-11-05T12:27:51.596Z,10.80
2017-11-05T12:30:19.117Z,10.85
2017-11-05T12:32:46.685Z,10.52
2017-11-05T12:35:14.129Z,10.75
2017-11-05T12:37:41.606Z,10.76
2017-11-05T12:40:09.148Z,10.82
2017-11-05T12:42:36.607Z,10.72
2017-11-05T12:45:04.096Z,10.86
2017-11-05T12:47:31.618Z,10.83
2017-11-05T12:49:59.103Z,10.71
2017-11-05T12:52:26.566Z,10.85
2017-11-05T12:54:54.040Z,10.94
2017-11-05T12:57:21.506Z,10.96
2017-11-05T12:59:48.967Z,11.03
2017-11-05T13:02:16.438Z,10.92
2017-11-05T13:04:43.919Z,10.98
2017-11-05T13:07:11.385Z,10.76
2017-11-05T13:09:38.931Z,10.95
2017-11-05T13:12:06.390Z,10.92
2017-11-05T13:14:33.855Z,10.95
2017-11-05T13:17:01.331Z,10.92
2017-11-05T13:19:28.865Z,11.02
2017-11-05T13:21:56.362Z,11.32
2017-11-05T13:24:23.825Z,11.36
2017-11-05T13:26:51.324Z,11.18
2017-11-05T13:29:18.771Z,11.24
2017-11-05T13:31:46.252Z,11.03
2017-11-05T13:34:13.700Z,10.87
2017-11-05T13:36:41.186Z,10.79
2017-11-05T13:39:08.645Z,10.92
2017-11-05T13:41:36.121Z,10.95
2017-11-05T13:44:03.646Z,10.86
2017-11-05T13:46:31.117Z,11.03
2017-11-05T13:48:58.610Z,11.03
2017-11-05T13:51:26.074Z,10.94
2017-11-05T13:53:53.539Z,10.92
2017-11-05T13:56:21.009Z,10.82
2017-11-05T13:58:48.481Z,10.99
2017-11-05T14:01:15.938Z,10.90
2017-11-05T14:03:43.491Z,10.79
2017-11-05T14:06:10.953Z,10.74
2017-11-05T14:08:38.448Z,10.64
2017-11-05T14:11:05.914Z,10.80
2017-11-05T14:13:33.425Z,10.68
2017-11-05T14:16:00.934Z,10.57
2017-11-05T14:18:28.393Z,10.59
2017-11-05T14:20:55.887Z,10.54
2017-11-05T14:23:23.397Z,10.50
2017-11-05T14:25:51.404Z,10.60
2017-11-05T14:28:18.862Z,10.49
2017-11-05T14:30:46.353Z,10.50
2017-11-05T14:33:13.829Z,10.47
2017-11-05T14:35:41.467Z,10.45
2017-11-05T14:38:08.945Z,10.42
2017-11-05T14:40:36.417Z,10.44
2017-11-05T14:43:03.871Z,10.39
2017-11-05T14:45:31.354Z,10.46
2017-11-05T14:47:58.905Z,10.32
2017-11-05T14:50:26.391Z,10.33
2017-11-05T14:52:53.853Z,10.41
2017-11-05T14:55:22.427Z,10.36
2017-11-05T14:57:49.923Z,10.30
2017-11-05T15:00:17.476Z,10.36
2017-11-05T15:02:46.515Z,10.28
2017-11-05T15:05:13.975Z,10.30
2017-11-05T15:07:41.451Z,10.21
2017-11-05T15:10:09.732Z,10.19
2017-11-05T15:12:37.266Z,10.10
2017-11-05T15:15:04.721Z,10.06
2017-11-05T15:17:32.287Z,9.99
2017-11-05T15:19:59.765Z,9.93
2017-11-05T15:22:27.325Z,9.76
2017-11-05T15:24:54.786Z,9.76
2017-11-05T15:27:22.353Z,9.65
2017-11-05T15:29:49.899Z,9.50
2017-11-05T15:32:18.284Z,9.54
2017-11-05T15:34:45.747Z,9.44
2017-11-05T15:37:13.201Z,9.36
2017-11-05T15:39:40.686Z,9.29
2017-11-05T15:42:08.169Z,9.09
2017-11-05T15:44:35.645Z,9.03
2017-11-05T15:47:03.126Z,8.90
2017-11-05T15:49:30.640Z,8.91
2017-11-05T15:51:58.216Z,8.77
2017-11-05T15:54:25.681Z,8.74
2017-11-05T15:56:53.137Z,8.74
2017-11-05T15:59:20.612Z,8.63
2017-11-05T16:01:48.092Z,8.65
2017-11-05T16:04:15.671Z,8.48
2017-11-05T16:06:43.167Z,8.37
2017-11-05T16:09:10.651Z,8.42
2017-11-05T16:11:38.116Z,8.41
2017-11-05T16:14:05.590Z,8.38
2017-11-05T16:16:33.073Z,8.23
2017-11-05T16:19:00.541Z,8.24
2017-11-05T16:21:28.022Z,8.23
2017-11-05T16:23:55.482Z,8.35
2017-11-05T16:26:23.004Z,8.17
2017-11-05T16:28:50.473Z,8.18
2017-11-05T16:31:18.042Z,8.27
2017-11-05T16:33:45.505Z,8.04
2017-11-05T16:36:13.008Z,8.12
2017-11-05T16:38:40.464Z,7.98
2017-11-05T16:41:07.973Z,7.90
2017-11-05T16:43:35.445Z,8.41
2017-11-05T16:46:03.020Z,8.15
2017-11-05T16:48:30.501Z,8.37
2017-11-05T16:50:57.978Z,8.26
2017-11-05T16:53:25.497Z,8.35
2017-11-05T16:55:52.967Z,8.17
2017-11-05T16:58:20.425Z,7.86
2017-11-05T17:00:47.941Z,8.03
2017-11-05T17:03:15.408Z,8.04
2017-11-05T17:05:42.865Z,8.10
2017-11-05T17:08:10.357Z,8.15
2017-11-05T17:10:37.834Z,8.20
2017-11-05T17:13:05.304Z,8.14
2017-11-05T17:15:32.783Z,8.13
2017-11-05T17:18:00.263Z,8.31
2017-11-05T17:20:27.808Z,8.19
2017-11-05T17:22:55.296Z,8.21
2017-11-05T17:25:22.755Z,8.43
2017-11-05T17:27:50.243Z,8.49
2017-11-05T17:30:17.701Z,8.43
2017-11-05T17:32:45.205Z,8.42
2017-11-05T17:35:12.698Z,8.82
2017-11-05T17:37:40.228Z,9.01
2017-11-05T17:40:07.738Z,9.21
2017-11-05T17:42:35.327Z,9.20
2017-11-05T17:45:02.809Z,9.15
2017-11-05T17:47:30.336Z,9.02
2017-11-05T17:49:57.801Z,9.15
2017-11-05T17:52:25.278Z,9.12
2017-11-05T17:54:52.764Z,9.23
2017-11-05T17:57:20.228Z,9.25
2017-11-05T17:59:47.709Z,9.29
2017-11-05T18:02:15.174Z,9.19
2017-11-05T18:04:42.662Z,9.24
2017-11-05T18:07:10.124Z,9.01
2017-11-05T18:09:37.643Z,8.96
2017-11-05T18:12:05.102Z,8.77
2017-11-05T18:14:32.585Z,8.64
2017-11-05T18:17:00.070Z,8.68
2017-11-05T18:19:27.566Z,8.72
2017-11-05T18:21:55.030Z,8.63
2017-11-05T18:24:22.529Z,8.58
2017-11-05T18:26:50.010Z,8.54
2017-11-05T18:29:17.474Z,8.43
2017-11-05T18:31:44.960Z,8.40
2017-11-05T18:34:12.442Z,8.25
2017-11-05T18:36:39.944Z,8.20
2017-11-05T18:39:07.424Z,8.07
2017-11-05T18:41:35.029Z,7.99
2017-11-05T18:44:02.490Z,8.01
2017-11-05T18:46:29.955Z,7.92
2017-11-05T18:48:57.392Z,7.93
2017-11-05T18:51:24.869Z,7.93
2017-11-05T18:53:52.329Z,7.90
2017-11-05T18:56:19.814Z,7.87
2017-11-05T18:58:47.274Z,7.79
2017-11-05T19:01:14.757Z,7.83
2017-11-05T19:03:42.293Z,7.86
2017-11-05T19:06:09.844Z,7.87
2017-11-05T19:08:37.308Z,7.92
2017-11-05T19:11:04.865Z,7.91
2017-11-05T19:13:32.339Z,7.79
2017-11-05T19:15:59.805Z,7.72
2017-11-05T19:18:27.287Z,7.71
2017-11-05T19:20:54.787Z,7.66
2017-11-05T19:23:22.372Z,7.56
2017-11-05T19:25:49.833Z,7.49
2017-11-05T19:28:17.311Z,7.52
2017-11-05T19:30:44.819Z,7.56
2017-11-05T19:33:12.307Z,7.62
2017-11-05T19:35:41.920Z,7.57
2017-11-05T19:38:09.993Z,7.52
2017-11-05T19:40:37.440Z,7.47
2017-11-05T19:43:04.933Z,7.46
2017-11-05T19:45:32.394Z,7.46
2017-11-05T19:47:59.863Z,7.34
2017-11-05T19:50:27.391Z,7.35
2017-11-05T19:52:54.875Z,7.31
2017-11-05T19:55:22.323Z,7.33
2017-11-05T19:57:49.786Z,7.45
2017-11-05T20:00:17.272Z,7.33
2017-11-05T20:02:44.724Z,7.40
2017-11-05T20:05:12.192Z,7.46
2017-11-05T20:07:39.642Z,7.29
2017-11-05T20:10:07.111Z,7.27
2017-11-05T20:12:34.561Z,7.22
2017-11-05T20:15:02.042Z,6.97
2017-11-05T20:17:29.497Z,6.87
2017-11-05T20:19:56.981Z,7.05
2017-11-05T20:22:24.438Z,6.87
2017-11-05T20:24:51.932Z,6.74
2017-11-05T20:27:19.390Z,6.78
2017-11-05T20:29:46.954Z,6.87
2017-11-05T20:32:14.419Z,6.79
2017-11-05T20:34:41.877Z,6.78
2017-11-05T20:37:09.374Z,6.99
2017-11-05T20:39:36.846Z,6.71
2017-11-05T20:42:04.353Z,6.77
2017-11-05T20:44:31.809Z,6.62
2017-11-05T20:46:59.377Z,6.63
2017-11-05T20:49:26.846Z,6.59
2017-11-05T20:51:54.359Z,6.52
2017-11-05T20:54:21.874Z,6.57
2017-11-05T20:56:49.345Z,6.62
2017-11-05T20:59:16.797Z,6.65
2017-11-05T21:01:44.281Z,6.66
2017-11-05T21:04:11.723Z,6.65
2017-11-05T21:06:39.229Z,6.67
2017-11-05T21:09:06.755Z,6.63
2017-11-05T21:11:34.231Z,6.84
2017-11-05T21:14:01.678Z,6.93
2017-11-05T21:16:29.167Z,6.82
2017-11-05T21:18:56.621Z,7.01
2017-11-05T21:21:24.080Z,6.79
2017-11-05T21:23:51.592Z,6.85
2017-11-05T21:26:19.045Z,6.82
2017-11-05T21:28:46.517Z,6.68
2017-11-05T21:31:13.996Z,6.80
2017-11-05T21:33:41.481Z,6.76
2017-11-05T21:36:08.928Z,6.78
2017-11-05T21:38:36.405Z,6.80
2017-11-05T21:41:03.867Z,6.73
2017-11-05T21:43:31.353Z,6.47
2017-11-05T21:45:58.810Z,6.42
2017-11-05T21:48:26.313Z,6.15
2017-11-05T21:50:53.767Z,6.03
2017-11-05T21:53:21.266Z,5.99
2017-11-05T21:55:48.729Z,5.91
2017-11-05T21:58:16.180Z,5.94
2017-11-05T22:00:43.658Z,5.81
2017-11-05T22:03:11.100Z,5.59
2017-11-05T22:05:38.595Z,5.69
2017-11-05T22:08:06.049Z,5.56
2017-11-05T22:10:33.584Z,5.54
2017-11-05T22:13:01.147Z,5.46
2017-11-05T22:15:28.612Z,5.41
2017-11-05T22:17:56.060Z,5.27
2017-11-05T22:20:23.544Z,5.35
2017-11-05T22:22:51.005Z,5.27
2017-11-05T22:25:18.461Z,5.18
2017-11-05T22:27:46.629Z,5.11
2017-11-05T22:30:14.148Z,5.10
2017-11-05T22:32:41.631Z,5.14
2017-11-05T22:35:09.098Z,4.98
2017-11-05T22:37:36.559Z,5.05
2017-11-05T22:40:04.029Z,5.29
2017-11-05T22:42:32.005Z,5.27
2017-11-05T22:44:59.512Z,5.26
2017-11-05T22:47:26.986Z,5.34
2017-11-05T22:49:54.526Z,5.26
2017-11-05T22:52:21.992Z,5.17
2017-11-05T22:54:49.452Z,5.06
2017-11-05T22:57:16.933Z,5.18
2017-11-05T22:59:44.386Z,4.94
2017-11-05T23:02:11.840Z,4.85
2017-11-05T23:04:39.346Z,4.74
2017-11-05T23:07:06.804Z,4.66
2017-11-05T23:09:34.285Z,4.68
2017-11-05T23:12:01.795Z,4.75
2017-11-05T23:14:29.268Z,4.80
2017-11-05T23:16:56.730Z,4.70
2017-11-05T23:19:24.324Z,4.46
2017-11-05T23:21:51.776Z,4.48
2017-11-05T23:24:19.249Z,4.51
2017-11-05T23:26:46.714Z,4.50
2017-11-05T23:29:14.213Z,4.56
2017-11-05T23:31:41.701Z,4.58
2017-11-05T23:34:09.179Z,4.38
2017-11-05T23:36:36.714Z,4.28
2017-11-05T23:39:04.177Z,4.37
2017-11-05T23:41:31.661Z,4.36
2017-11-05T23:43:59.132Z,4.41
2017-11-05T23:46:26.606Z,4.10
2017-11-05T23:48:54.066Z,4.02
2017-11-05T23:51:21.532Z,4.48
2017-11-05T23:53:48.996Z,4.17
2017-11-05T23:56:16.460Z,4.05
2017-11-05T23:58:43.899Z,4.07
